Terminal Aerodrome Forecast
Issued by NWS Austin/San Antonio, TX

Current Version | Previous Version | Text Only | Print | Product List | Glossary Off
Versions: 1 2 3 4 5 6 7 8 9 10 11 12 13

000
FTUS44 KEWX 261700
TAFSAT
TAF
KSAT 261725Z 2618/2724 23010G15KT P6SM SKC
     FM262300 28006KT P6SM SKC
     FM270200 01007KT P6SM SKC
     FM271500 04007KT P6SM SKC=

USA.gov is the U.S. government's official web portal to all federal, state and local government web resources and services.